sensor_id;sensor_type;location;lat;lon;timestamp;pressure;altitude;pressure_sealevel;temperature;humidity
64886;BME280;51514;52.206;5.114;2023-04-01T00:01:04;99080.63;;;11.10;100.00
64886;BME280;51514;52.206;5.114;2023-04-01T00:03:31;99092.88;;;11.12;100.00
64886;BME280;51514;52.206;5.114;2023-04-01T00:05:59;99086.66;;;11.12;100.00
64886;BME280;51514;52.206;5.114;2023-04-01T00:08:26;99087.50;;;11.12;100.00
64886;BME280;51514;52.206;5.114;2023-04-01T00:10:52;99084.78;;;11.12;100.00
64886;BME280;51514;52.206;5.114;2023-04-01T00:13:18;99089.94;;;11.07;100.00
64886;BME280;51514;52.206;5.114;2023-04-01T00:15:43;99095.53;;;11.06;100.00
64886;BME280;51514;52.206;5.114;2023-04-01T00:18:10;99091.81;;;11.07;100.00
64886;BME280;51514;52.206;5.114;2023-04-01T00:20:35;99098.88;;;11.01;100.00
64886;BME280;51514;52.206;5.114;2023-04-01T00:23:01;99096.56;;;10.98;100.00
64886;BME280;51514;52.206;5.114;2023-04-01T00:25:26;99095.75;;;10.97;100.00
64886;BME280;51514;52.206;5.114;2023-04-01T00:27:52;99102.59;;;11.00;100.00
64886;BME280;51514;52.206;5.114;2023-04-01T00:30:17;99100.53;;;11.02;100.00
64886;BME280;51514;52.206;5.114;2023-04-01T00:32:43;99098.44;;;10.97;100.00
64886;BME280;51514;52.206;5.114;2023-04-01T00:35:08;99107.97;;;10.93;100.00
64886;BME280;51514;52.206;5.114;2023-04-01T00:37:37;99110.25;;;10.90;100.00
64886;BME280;51514;52.206;5.114;2023-04-01T00:40:06;99100.69;;;10.87;100.00
64886;BME280;51514;52.206;5.114;2023-04-01T00:42:32;99106.50;;;10.84;100.00
64886;BME280;51514;52.206;5.114;2023-04-01T00:44:57;99106.94;;;10.88;100.00
64886;BME280;51514;52.206;5.114;2023-04-01T00:47:24;99107.97;;;10.87;100.00
64886;BME280;51514;52.206;5.114;2023-04-01T00:49:51;99112.09;;;10.83;100.00
64886;BME280;51514;52.206;5.114;2023-04-01T00:52:21;99113.53;;;10.85;100.00
64886;BME280;51514;52.206;5.114;2023-04-01T00:54:50;99113.94;;;10.82;100.00
64886;BME280;51514;52.206;5.114;2023-04-01T00:57:50;99115.00;;;10.81;100.00
64886;BME280;51514;52.206;5.114;2023-04-01T01:00:11;99109.19;;;10.78;100.00
64886;BME280;51514;52.206;5.114;2023-04-01T01:02:41;99110.81;;;10.72;100.00
64886;BME280;51514;52.206;5.114;2023-04-01T01:05:06;99107.06;;;10.67;100.00
64886;BME280;51514;52.206;5.114;2023-04-01T01:07:40;99119.50;;;10.68;100.00
64886;BME280;51514;52.206;5.114;2023-04-01T01:10:31;99114.50;;;10.58;100.00
64886;BME280;51514;52.206;5.114;2023-04-01T01:13:12;99112.22;;;10.61;100.00
64886;BME280;51514;52.206;5.114;2023-04-01T01:16:00;99110.34;;;10.62;100.00
64886;BME280;51514;52.206;5.114;2023-04-01T01:18:39;99120.53;;;10.67;100.00
64886;BME280;51514;52.206;5.114;2023-04-01T01:37:02;99118.25;;;10.64;100.00
64886;BME280;51514;52.206;5.114;2023-04-01T01:39:33;99124.06;;;10.67;100.00
64886;BME280;51514;52.206;5.114;2023-04-01T01:42:03;99120.34;;;10.68;100.00
64886;BME280;51514;52.206;5.114;2023-04-01T01:44:30;99122.00;;;10.69;100.00
64886;BME280;51514;52.206;5.114;2023-04-01T01:46:58;99124.06;;;10.67;100.00
64886;BME280;51514;52.206;5.114;2023-04-01T01:49:24;99125.50;;;10.63;100.00
64886;BME280;51514;52.206;5.114;2023-04-01T01:51:50;99134.41;;;10.64;100.00
64886;BME280;51514;52.206;5.114;2023-04-01T01:54:17;99134.41;;;10.64;100.00
64886;BME280;51514;52.206;5.114;2023-04-01T01:56:45;99129.66;;;10.66;100.00
64886;BME280;51514;52.206;5.114;2023-04-01T01:59:13;99130.69;;;10.71;100.00
64886;BME280;51514;52.206;5.114;2023-04-01T02:01:42;99131.97;;;10.75;100.00
64886;BME280;51514;52.206;5.114;2023-04-01T02:04:10;99136.94;;;10.72;100.00
64886;BME280;51514;52.206;5.114;2023-04-01T02:06:41;99132.78;;;10.69;100.00
64886;BME280;51514;52.206;5.114;2023-04-01T02:09:10;99141.06;;;10.68;100.00
64886;BME280;51514;52.206;5.114;2023-04-01T02:11:45;99135.50;;;10.69;100.00
64886;BME280;51514;52.206;5.114;2023-04-01T02:14:23;99147.09;;;10.70;100.00
64886;BME280;51514;52.206;5.114;2023-04-01T02:16:57;99144.41;;;10.70;100.00
64886;BME280;51514;52.206;5.114;2023-04-01T02:19:31;99142.09;;;10.67;100.00
64886;BME280;51514;52.206;5.114;2023-04-01T02:22:01;99150.63;;;10.70;100.00
64886;BME280;51514;52.206;5.114;2023-04-01T02:24:29;99147.72;;;10.72;100.00
64886;BME280;51514;52.206;5.114;2023-04-01T02:26:56;99153.09;;;10.72;100.00
64886;BME280;51514;52.206;5.114;2023-04-01T02:29:24;99157.88;;;10.70;100.00
64886;BME280;51514;52.206;5.114;2023-04-01T02:31:51;99160.34;;;10.71;100.00
64886;BME280;51514;52.206;5.114;2023-04-01T02:34:19;99169.28;;;10.72;100.00
64886;BME280;51514;52.206;5.114;2023-04-01T02:36:46;99166.00;;;10.76;100.00
64886;BME280;51514;52.206;5.114;2023-04-01T02:39:12;99168.50;;;10.78;100.00
64886;BME280;51514;52.206;5.114;2023-04-01T02:41:42;99170.78;;;10.81;100.00
64886;BME280;51514;52.206;5.114;2023-04-01T02:44:11;99167.25;;;10.80;100.00
64886;BME280;51514;52.206;5.114;2023-04-01T02:46:37;99175.56;;;10.85;100.00
64886;BME280;51514;52.206;5.114;2023-04-01T02:49:03;99181.41;;;10.89;100.00
64886;BME280;51514;52.206;5.114;2023-04-01T02:51:28;99182.03;;;10.91;100.00
64886;BME280;51514;52.206;5.114;2023-04-01T02:53:54;99182.63;;;10.93;100.00
64886;BME280;51514;52.206;5.114;2023-04-01T02:56:19;99182.03;;;10.97;100.00
64886;BME280;51514;52.206;5.114;2023-04-01T02:58:45;99190.56;;;11.01;100.00
64886;BME280;51514;52.206;5.114;2023-04-01T03:01:11;99192.22;;;11.02;100.00
64886;BME280;51514;52.206;5.114;2023-04-01T03:03:37;99192.00;;;11.04;100.00
64886;BME280;51514;52.206;5.114;2023-04-01T03:06:07;99196.81;;;11.08;100.00
64886;BME280;51514;52.206;5.114;2023-04-01T03:08:33;99201.38;;;11.08;100.00
64886;BME280;51514;52.206;5.114;2023-04-01T03:10:58;99202.00;;;11.10;100.00
64886;BME280;51514;52.206;5.114;2023-04-01T03:13:24;99207.41;;;11.10;100.00
64886;BME280;51514;52.206;5.114;2023-04-01T03:15:49;99208.88;;;11.12;100.00
64886;BME280;51514;52.206;5.114;2023-04-01T03:18:15;99211.78;;;11.17;100.00
64886;BME280;51514;52.206;5.114;2023-04-01T03:20:40;99217.59;;;11.21;100.00
64886;BME280;51514;52.206;5.114;2023-04-01T03:23:06;99222.16;;;11.20;100.00
64886;BME280;51514;52.206;5.114;2023-04-01T03:25:32;99221.78;;;11.23;100.00
64886;BME280;51514;52.206;5.114;2023-04-01T03:27:57;99225.50;;;11.22;100.00
64886;BME280;51514;52.206;5.114;2023-04-01T03:30:25;99227.16;;;11.23;100.00
64886;BME280;51514;52.206;5.114;2023-04-01T03:32:50;99228.19;;;11.22;100.00
64886;BME280;51514;52.206;5.114;2023-04-01T03:35:15;99233.16;;;11.25;100.00
64886;BME280;51514;52.206;5.114;2023-04-01T03:37:41;99239.19;;;11.27;100.00
64886;BME280;51514;52.206;5.114;2023-04-01T03:40:07;99237.53;;;11.26;100.00
64886;BME280;51514;52.206;5.114;2023-04-01T03:42:33;99237.53;;;11.26;100.00
64886;BME280;51514;52.206;5.114;2023-04-01T03:44:58;99243.75;;;11.27;100.00
64886;BME280;51514;52.206;5.114;2023-04-01T03:47:24;99251.47;;;11.30;100.00
64886;BME280;51514;52.206;5.114;2023-04-01T03:49:49;99256.66;;;11.31;100.00
64886;BME280;51514;52.206;5.114;2023-04-01T03:52:15;99257.88;;;11.29;100.00
64886;BME280;51514;52.206;5.114;2023-04-01T03:54:40;99261.81;;;11.26;100.00
64886;BME280;51514;52.206;5.114;2023-04-01T03:57:05;99273.63;;;11.25;100.00
64886;BME280;51514;52.206;5.114;2023-04-01T03:59:31;99272.81;;;11.25;100.00
64886;BME280;51514;52.206;5.114;2023-04-01T04:01:56;99278.81;;;11.20;100.00
64886;BME280;51514;52.206;5.114;2023-04-01T04:04:21;99286.09;;;11.20;100.00
64886;BME280;51514;52.206;5.114;2023-04-01T04:06:47;99287.50;;;11.16;100.00
64886;BME280;51514;52.206;5.114;2023-04-01T04:09:13;99295.41;;;11.17;100.00
64886;BME280;51514;52.206;5.114;2023-04-01T04:11:38;99298.50;;;11.14;100.00
64886;BME280;51514;52.206;5.114;2023-04-01T04:14:04;99303.28;;;11.12;100.00
64886;BME280;51514;52.206;5.114;2023-04-01T04:16:29;99304.31;;;11.11;100.00
64886;BME280;51514;52.206;5.114;2023-04-01T04:18:55;99301.81;;;11.10;100.00
64886;BME280;51514;52.206;5.114;2023-04-01T04:21:20;99313.44;;;11.10;100.00
64886;BME280;51514;52.206;5.114;2023-04-01T04:23:46;99317.59;;;11.13;100.00
64886;BME280;51514;52.206;5.114;2023-04-01T04:26:13;99315.31;;;11.16;100.00
64886;BME280;51514;52.206;5.114;2023-04-01T04:28:39;99320.31;;;11.19;100.00
64886;BME280;51514;52.206;5.114;2023-04-01T04:31:05;99325.53;;;11.21;100.00
64886;BME280;51514;52.206;5.114;2023-04-01T04:33:31;99328.03;;;11.22;100.00
64886;BME280;51514;52.206;5.114;2023-04-01T04:35:58;99332.78;;;11.20;100.00
64886;BME280;51514;52.206;5.114;2023-04-01T04:38:24;99343.56;;;11.20;100.00
64886;BME280;51514;52.206;5.114;2023-04-01T04:40:50;99344.41;;;11.21;100.00
64886;BME280;51514;52.206;5.114;2023-04-01T04:43:17;99349.59;;;11.22;100.00
64886;BME280;51514;52.206;5.114;2023-04-01T04:45:42;99347.94;;;11.21;100.00
64886;BME280;51514;52.206;5.114;2023-04-01T04:48:09;99356.44;;;11.25;100.00
64886;BME280;51514;52.206;5.114;2023-04-01T04:50:35;99352.94;;;11.24;100.00
64886;BME280;51514;52.206;5.114;2023-04-01T04:53:00;99359.97;;;11.25;100.00
64886;BME280;51514;52.206;5.114;2023-04-01T04:55:26;99362.47;;;11.27;100.00
64886;BME280;51514;52.206;5.114;2023-04-01T04:57:51;99363.72;;;11.24;100.00
64886;BME280;51514;52.206;5.114;2023-04-01T05:00:17;99371.19;;;11.22;100.00
64886;BME280;51514;52.206;5.114;2023-04-01T05:02:42;99378.84;;;11.25;100.00
64886;BME280;51514;52.206;5.114;2023-04-01T05:05:08;99385.94;;;11.26;100.00
64886;BME280;51514;52.206;5.114;2023-04-01T05:07:33;99388.63;;;11.26;100.00
64886;BME280;51514;52.206;5.114;2023-04-01T05:09:59;99392.34;;;11.25;100.00
64886;BME280;51514;52.206;5.114;2023-04-01T05:12:25;99396.31;;;11.23;100.00
64886;BME280;51514;52.206;5.114;2023-04-01T05:14:50;99392.34;;;11.25;100.00
64886;BME280;51514;52.206;5.114;2023-04-01T05:17:15;99402.13;;;11.26;100.00
64886;BME280;51514;52.206;5.114;2023-04-01T05:19:41;99398.38;;;11.27;100.00
64886;BME280;51514;52.206;5.114;2023-04-01T05:22:06;99413.34;;;11.30;100.00
64886;BME280;51514;52.206;5.114;2023-04-01T05:24:32;99414.38;;;11.29;100.00
64886;BME280;51514;52.206;5.114;2023-04-01T05:26:58;99420.41;;;11.31;100.00
64886;BME280;51514;52.206;5.114;2023-04-01T05:29:24;99416.06;;;11.30;100.00
64886;BME280;51514;52.206;5.114;2023-04-01T05:31:50;99420.63;;;11.29;100.00
64886;BME280;51514;52.206;5.114;2023-04-01T05:34:15;99426.00;;;11.29;100.00
64886;BME280;51514;52.206;5.114;2023-04-01T05:36:42;99435.59;;;11.32;100.00
64886;BME280;51514;52.206;5.114;2023-04-01T05:39:07;99439.94;;;11.33;100.00
64886;BME280;51514;52.206;5.114;2023-04-01T05:41:36;99437.44;;;11.31;100.00
64886;BME280;51514;52.206;5.114;2023-04-01T05:44:02;99446.38;;;11.32;100.00
64886;BME280;51514;52.206;5.114;2023-04-01T05:46:28;99454.28;;;11.33;100.00
64886;BME280;51514;52.206;5.114;2023-04-01T05:48:53;99454.91;;;11.36;100.00
64886;BME280;51514;52.206;5.114;2023-04-01T05:51:19;99458.22;;;11.38;100.00
64886;BME280;51514;52.206;5.114;2023-04-01T05:53:44;99453.47;;;11.40;100.00
64886;BME280;51514;52.206;5.114;2023-04-01T05:56:10;99466.97;;;11.40;100.00
64886;BME280;51514;52.206;5.114;2023-04-01T05:58:36;99461.56;;;11.40;100.00
64886;BME280;51514;52.206;5.114;2023-04-01T06:01:07;99461.38;;;11.41;100.00
64886;BME280;51514;52.206;5.114;2023-04-01T06:03:33;99465.94;;;11.41;100.00
64886;BME280;51514;52.206;5.114;2023-04-01T06:05:58;99467.34;;;11.37;100.00
64886;BME280;51514;52.206;5.114;2023-04-01T06:08:27;99474.41;;;11.38;100.00
64886;BME280;51514;52.206;5.114;2023-04-01T06:49:28;99548.97;;;11.39;100.00
64886;BME280;51514;52.206;5.114;2023-04-01T06:52:17;99551.44;;;11.33;100.00
64886;BME280;51514;52.206;5.114;2023-04-01T06:54:55;99556.19;;;11.31;100.00
64886;BME280;51514;52.206;5.114;2023-04-01T06:57:43;99554.97;;;11.34;100.00
64886;BME280;51514;52.206;5.114;2023-04-01T07:00:34;99562.22;;;11.33;100.00
64886;BME280;51514;52.206;5.114;2023-04-01T07:03:18;99574.03;;;11.32;100.00
64886;BME280;51514;52.206;5.114;2023-04-01T07:05:43;99569.66;;;11.31;100.00
64886;BME280;51514;52.206;5.114;2023-04-01T07:08:12;99577.56;;;11.33;100.00
64886;BME280;51514;52.206;5.114;2023-04-01T07:10:54;99580.69;;;11.37;100.00
64886;BME280;51514;52.206;5.114;2023-04-01T07:16:07;99590.47;;;11.38;100.00
64886;BME280;51514;52.206;5.114;2023-04-01T07:18:44;99593.16;;;11.38;100.00
64886;BME280;51514;52.206;5.114;2023-04-01T07:21:25;99605.63;;;11.39;100.00
64886;BME280;51514;52.206;5.114;2023-04-01T07:23:53;99608.97;;;11.41;100.00
64886;BME280;51514;52.206;5.114;2023-04-01T07:26:22;99604.22;;;11.43;100.00
64886;BME280;51514;52.206;5.114;2023-04-01T07:28:49;99607.16;;;11.48;100.00
64886;BME280;51514;52.206;5.114;2023-04-01T07:31:30;99620.28;;;11.51;100.00
64886;BME280;51514;52.206;5.114;2023-04-01T07:34:23;99621.75;;;11.53;100.00
64886;BME280;51514;52.206;5.114;2023-04-01T07:43:02;99632.78;;;11.58;100.00
64886;BME280;51514;52.206;5.114;2023-04-01T07:50:49;99640.34;;;11.69;100.00
64886;BME280;51514;52.206;5.114;2023-04-01T07:53:38;99639.78;;;11.74;100.00
64886;BME280;51514;52.206;5.114;2023-04-01T07:56:12;99649.81;;;11.80;100.00
64886;BME280;51514;52.206;5.114;2023-04-01T08:06:45;99671.88;;;11.84;100.00
64886;BME280;51514;52.206;5.114;2023-04-01T08:14:48;99682.50;;;11.85;100.00
64886;BME280;51514;52.206;5.114;2023-04-01T08:17:31;99693.75;;;11.89;100.00
64886;BME280;51514;52.206;5.114;2023-04-01T08:20:28;99695.63;;;11.88;100.00
64886;BME280;51514;52.206;5.114;2023-04-01T08:23:03;99691.88;;;11.89;100.00
64886;BME280;51514;52.206;5.114;2023-04-01T08:25:32;99692.50;;;11.91;100.00
64886;BME280;51514;52.206;5.114;2023-04-01T08:30:41;99699.38;;;11.94;100.00
64886;BME280;51514;52.206;5.114;2023-04-01T08:33:25;99708.97;;;11.96;100.00
64886;BME280;51514;52.206;5.114;2023-04-01T08:38:29;99718.78;;;12.04;100.00
64886;BME280;51514;52.206;5.114;2023-04-01T08:40:58;99714.22;;;12.04;100.00
64886;BME280;51514;52.206;5.114;2023-04-01T08:49:00;99727.47;;;12.21;100.00
64886;BME280;51514;52.206;5.114;2023-04-01T08:54:43;99732.88;;;12.21;100.00
64886;BME280;51514;52.206;5.114;2023-04-01T09:06:31;99749.56;;;12.31;100.00
64886;BME280;51514;52.206;5.114;2023-04-01T09:11:39;99750.22;;;12.33;100.00
64886;BME280;51514;52.206;5.114;2023-04-01T09:19:21;99760.81;;;12.34;100.00
64886;BME280;51514;52.206;5.114;2023-04-01T09:24:46;99767.47;;;12.32;100.00
64886;BME280;51514;52.206;5.114;2023-04-01T09:27:26;99770.78;;;12.34;100.00
64886;BME280;51514;52.206;5.114;2023-04-01T09:35:49;99774.38;;;12.41;100.00
64886;BME280;51514;52.206;5.114;2023-04-01T09:46:36;99798.13;;;12.46;100.00
64886;BME280;51514;52.206;5.114;2023-04-01T10:08:40;99826.47;;;12.28;100.00
64886;BME280;51514;52.206;5.114;2023-04-01T10:14:31;99827.78;;;12.32;100.00
64886;BME280;51514;52.206;5.114;2023-04-01T10:39:00;99844.88;;;12.67;100.00
64886;BME280;51514;52.206;5.114;2023-04-01T10:50:16;99851.59;;;13.06;100.00
64886;BME280;51514;52.206;5.114;2023-04-01T11:16:00;99881.00;;;12.88;100.00
64886;BME280;51514;52.206;5.114;2023-04-01T11:32:50;99907.56;;;12.77;100.00
64886;BME280;51514;52.206;5.114;2023-04-01T11:46:27;99918.31;;;12.64;100.00
64886;BME280;51514;52.206;5.114;2023-04-01T11:52:07;99932.22;;;12.61;100.00
64886;BME280;51514;52.206;5.114;2023-04-01T11:54:55;99928.63;;;12.54;100.00
64886;BME280;51514;52.206;5.114;2023-04-01T12:03:02;99934.78;;;12.48;100.00
64886;BME280;51514;52.206;5.114;2023-04-01T12:11:42;99953.16;;;12.53;100.00
64886;BME280;51514;52.206;5.114;2023-04-01T12:14:16;99960.41;;;12.52;100.00
64886;BME280;51514;52.206;5.114;2023-04-01T12:16:55;99960.66;;;12.57;100.00
64886;BME280;51514;52.206;5.114;2023-04-01T12:23:03;99973.25;;;12.65;100.00
64886;BME280;51514;52.206;5.114;2023-04-01T12:30:54;99985.66;;;12.59;100.00
64886;BME280;51514;52.206;5.114;2023-04-01T12:34:08;99989.00;;;12.61;100.00
64886;BME280;51514;52.206;5.114;2023-04-01T13:02:30;100012.50;;;13.03;100.00
64886;BME280;51514;52.206;5.114;2023-04-01T13:08:27;100015.00;;;13.05;100.00
64886;BME280;51514;52.206;5.114;2023-04-01T13:10:59;100025.75;;;12.98;100.00
64886;BME280;51514;52.206;5.114;2023-04-01T13:16:31;100033.16;;;12.68;100.00
64886;BME280;51514;52.206;5.114;2023-04-01T13:21:43;100045.09;;;12.53;100.00
64886;BME280;51514;52.206;5.114;2023-04-01T13:28:12;100058.44;;;12.39;100.00
64886;BME280;51514;52.206;5.114;2023-04-01T13:47:10;100083.19;;;12.22;100.00
64886;BME280;51514;52.206;5.114;2023-04-01T14:13:36;100116.44;;;11.93;100.00
64886;BME280;51514;52.206;5.114;2023-04-01T14:29:53;100144.72;;;11.82;100.00
64886;BME280;51514;52.206;5.114;2023-04-01T14:32:27;100143.22;;;11.80;100.00
64886;BME280;51514;52.206;5.114;2023-04-01T14:35:21;100149.47;;;11.80;100.00
64886;BME280;51514;52.206;5.114;2023-04-01T14:46:06;100180.16;;;11.64;100.00
64886;BME280;51514;52.206;5.114;2023-04-01T14:48:57;100177.28;;;11.66;100.00
64886;BME280;51514;52.206;5.114;2023-04-01T14:51:38;100179.00;;;11.59;100.00
64886;BME280;51514;52.206;5.114;2023-04-01T14:54:49;100179.66;;;11.61;100.00
64886;BME280;51514;52.206;5.114;2023-04-01T14:57:01;100191.50;;;11.60;100.00
64886;BME280;51514;52.206;5.114;2023-04-01T14:59:29;100195.38;;;11.57;100.00
64886;BME280;51514;52.206;5.114;2023-04-01T15:02:30;100190.81;;;11.58;100.00
64886;BME280;51514;52.206;5.114;2023-04-01T15:16:23;100219.06;;;11.55;100.00
64886;BME280;51514;52.206;5.114;2023-04-01T15:19:07;100227.69;;;11.51;100.00
64886;BME280;51514;52.206;5.114;2023-04-01T15:21:59;100240.50;;;11.49;100.00
64886;BME280;51514;52.206;5.114;2023-04-01T15:27:41;100250.00;;;11.45;100.00
64886;BME280;51514;52.206;5.114;2023-04-01T15:33:07;100255.75;;;11.42;100.00
64886;BME280;51514;52.206;5.114;2023-04-01T15:41:17;100279.72;;;11.37;100.00
64886;BME280;51514;52.206;5.114;2023-04-01T15:43:49;100278.53;;;11.39;100.00
64886;BME280;51514;52.206;5.114;2023-04-01T15:46:46;100276.38;;;11.34;100.00
64886;BME280;51514;52.206;5.114;2023-04-01T15:49:34;100293.94;;;11.30;100.00
64886;BME280;51514;52.206;5.114;2023-04-01T15:52:10;100298.66;;;11.28;100.00
64886;BME280;51514;52.206;5.114;2023-04-01T16:07:09;100324.56;;;11.07;100.00
64886;BME280;51514;52.206;5.114;2023-04-01T16:12:18;100336.53;;;11.12;100.00
64886;BME280;51514;52.206;5.114;2023-04-01T16:15:03;100335.88;;;11.10;100.00
64886;BME280;51514;52.206;5.114;2023-04-01T16:25:39;100354.47;;;10.97;100.00
64886;BME280;51514;52.206;5.114;2023-04-01T16:30:47;100365.78;;;10.84;100.00
64886;BME280;51514;52.206;5.114;2023-04-01T16:33:19;100374.22;;;10.89;100.00
64886;BME280;51514;52.206;5.114;2023-04-01T16:38:33;100377.38;;;11.01;100.00
64886;BME280;51514;52.206;5.114;2023-04-01T16:41:34;100386.63;;;11.07;100.00
64886;BME280;51514;52.206;5.114;2023-04-01T16:44:10;100394.56;;;11.08;100.00
64886;BME280;51514;52.206;5.114;2023-04-01T16:46:40;100393.19;;;11.12;100.00
64886;BME280;51514;52.206;5.114;2023-04-01T17:02:14;100448.00;;;11.13;100.00
64886;BME280;51514;52.206;5.114;2023-04-01T17:04:58;100443.78;;;11.10;100.00
64886;BME280;51514;52.206;5.114;2023-04-01T17:07:34;100461.19;;;11.00;100.00
64886;BME280;51514;52.206;5.114;2023-04-01T17:18:20;100474.31;;;10.94;100.00
64886;BME280;51514;52.206;5.114;2023-04-01T17:21:14;100486.31;;;10.92;100.00
64886;BME280;51514;52.206;5.114;2023-04-01T17:23:53;100490.53;;;10.86;100.00
64886;BME280;51514;52.206;5.114;2023-04-01T17:32:08;100514.63;;;10.88;100.00
64886;BME280;51514;52.206;5.114;2023-04-01T17:34:42;100520.19;;;10.94;100.00
64886;BME280;51514;52.206;5.114;2023-04-01T17:40:24;100528.59;;;10.83;100.00
64886;BME280;51514;52.206;5.114;2023-04-01T17:48:18;100553.72;;;10.68;100.00
64886;BME280;51514;52.206;5.114;2023-04-01T17:51:02;100558.59;;;10.64;100.00
64886;BME280;51514;52.206;5.114;2023-04-01T17:56:29;100569.69;;;10.45;100.00
64886;BME280;51514;52.206;5.114;2023-04-01T17:59:21;100580.16;;;10.48;100.00
64886;BME280;51514;52.206;5.114;2023-04-01T18:04:47;100585.03;;;10.52;100.00
64886;BME280;51514;52.206;5.114;2023-04-01T18:07:42;100591.63;;;10.58;100.00
64886;BME280;51514;52.206;5.114;2023-04-01T18:10:28;100598.88;;;10.57;100.00
64886;BME280;51514;52.206;5.114;2023-04-01T18:13:29;100603.25;;;10.58;100.00
64886;BME280;51514;52.206;5.114;2023-04-01T18:21:48;100629.63;;;10.39;100.00
64886;BME280;51514;52.206;5.114;2023-04-01T18:24:26;100637.53;;;10.32;100.00
64886;BME280;51514;52.206;5.114;2023-04-01T18:27:23;100641.06;;;10.33;100.00
64886;BME280;51514;52.206;5.114;2023-04-01T18:32:36;100653.53;;;10.34;100.00
64886;BME280;51514;52.206;5.114;2023-04-01T18:36:09;100658.75;;;10.27;100.00
64886;BME280;51514;52.206;5.114;2023-04-01T18:38:27;100676.56;;;10.28;100.00
64886;BME280;51514;52.206;5.114;2023-04-01T18:41:10;100678.94;;;10.31;100.00
64886;BME280;51514;52.206;5.114;2023-04-01T18:46:40;100698.03;;;10.38;100.00
64886;BME280;51514;52.206;5.114;2023-04-01T18:49:19;100702.38;;;10.39;100.00
64886;BME280;51514;52.206;5.114;2023-04-01T18:51:58;100707.63;;;10.40;100.00
64886;BME280;51514;52.206;5.114;2023-04-01T18:54:33;100708.28;;;10.34;100.00
64886;BME280;51514;52.206;5.114;2023-04-01T18:57:13;100724.72;;;10.23;100.00
64886;BME280;51514;52.206;5.114;2023-04-01T18:59:53;100725.41;;;10.25;100.00
64886;BME280;51514;52.206;5.114;2023-04-01T19:02:36;100730.19;;;10.13;100.00
64886;BME280;51514;52.206;5.114;2023-04-01T19:05:15;100737.88;;;10.08;100.00
64886;BME280;51514;52.206;5.114;2023-04-01T19:07:48;100744.53;;;9.96;100.00
64886;BME280;51514;52.206;5.114;2023-04-01T19:37:54;100814.97;;;9.66;100.00
64886;BME280;51514;52.206;5.114;2023-04-01T19:45:51;100834.66;;;9.66;99.63
64886;BME280;51514;52.206;5.114;2023-04-01T19:54:21;100849.97;;;9.48;98.13
64886;BME280;51514;52.206;5.114;2023-04-01T19:57:12;100854.34;;;9.49;98.50
64886;BME280;51514;52.206;5.114;2023-04-01T20:05:16;100872.41;;;9.39;98.08
64886;BME280;51514;52.206;5.114;2023-04-01T20:07:56;100887.94;;;9.45;98.45
64886;BME280;51514;52.206;5.114;2023-04-01T20:15:39;100905.78;;;9.46;98.15
64886;BME280;51514;52.206;5.114;2023-04-01T20:18:15;100905.69;;;9.38;97.05
64886;BME280;51514;52.206;5.114;2023-04-01T20:20:55;100908.22;;;9.39;96.85
64886;BME280;51514;52.206;5.114;2023-04-01T20:26:08;100925.22;;;9.40;97.05
64886;BME280;51514;52.206;5.114;2023-04-01T20:45:38;100961.97;;;9.22;96.60
64886;BME280;51514;52.206;5.114;2023-04-01T20:50:59;100984.94;;;9.16;96.39
64886;BME280;51514;52.206;5.114;2023-04-01T20:53:35;100985.25;;;9.03;95.83
64886;BME280;51514;52.206;5.114;2023-04-01T21:01:47;101006.81;;;8.84;96.54
64886;BME280;51514;52.206;5.114;2023-04-01T21:07:34;101013.31;;;8.82;96.20
64886;BME280;51514;52.206;5.114;2023-04-01T21:15:50;101029.72;;;8.69;96.92
64886;BME280;51514;52.206;5.114;2023-04-01T21:21:15;101039.91;;;8.65;96.53
64886;BME280;51514;52.206;5.114;2023-04-01T21:29:51;101058.88;;;8.64;95.72
64886;BME280;51514;52.206;5.114;2023-04-01T21:32:42;101058.56;;;8.57;95.30
64886;BME280;51514;52.206;5.114;2023-04-01T21:40:47;101080.38;;;8.54;95.50
64886;BME280;51514;52.206;5.114;2023-04-01T22:05:31;101131.06;;;8.28;96.13
64886;BME280;51514;52.206;5.114;2023-04-01T22:11:05;101130.47;;;8.25;96.32
64886;BME280;51514;52.206;5.114;2023-04-01T22:13:41;101137.16;;;8.30;96.61
64886;BME280;51514;52.206;5.114;2023-04-01T22:16:41;101141.78;;;8.28;96.27
64886;BME280;51514;52.206;5.114;2023-04-01T22:19:15;101152.53;;;8.28;96.21
64886;BME280;51514;52.206;5.114;2023-04-01T22:22:24;101156.09;;;8.29;95.54
64886;BME280;51514;52.206;5.114;2023-04-01T22:28:00;101170.94;;;8.33;95.91
64886;BME280;51514;52.206;5.114;2023-04-01T22:30:42;101167.16;;;8.35;95.91
64886;BME280;51514;52.206;5.114;2023-04-01T22:33:21;101179.72;;;8.35;95.69
64886;BME280;51514;52.206;5.114;2023-04-01T22:38:58;101186.94;;;8.34;95.67
64886;BME280;51514;52.206;5.114;2023-04-01T22:44:50;101190.88;;;8.30;95.36
64886;BME280;51514;52.206;5.114;2023-04-01T22:50:12;101212.72;;;8.16;95.53
64886;BME280;51514;52.206;5.114;2023-04-01T22:52:43;101218.34;;;8.13;95.32
64886;BME280;51514;52.206;5.114;2023-04-01T23:00:27;101230.06;;;8.12;95.87
64886;BME280;51514;52.206;5.114;2023-04-01T23:05:53;101243.97;;;8.17;95.62
64886;BME280;51514;52.206;5.114;2023-04-01T23:22:56;101266.00;;;8.11;93.81
64886;BME280;51514;52.206;5.114;2023-04-01T23:25:33;101271.44;;;8.00;93.82
64886;BME280;51514;52.206;5.114;2023-04-01T23:31:03;101277.31;;;7.94;94.59
64886;BME280;51514;52.206;5.114;2023-04-01T23:33:30;101280.00;;;7.94;95.16
64886;BME280;51514;52.206;5.114;2023-04-01T23:36:13;101286.91;;;7.87;94.16
64886;BME280;51514;52.206;5.114;2023-04-01T23:38:42;101291.97;;;7.90;94.93
64886;BME280;51514;52.206;5.114;2023-04-01T23:41:37;101297.88;;;7.84;93.63
64886;BME280;51514;52.206;5.114;2023-04-01T23:44:05;101304.22;;;7.83;94.27